createdAt,value
2022-10-29T00:00:54.912Z,11.66
2022-10-29T00:03:22.017Z,11.72
2022-10-29T00:06:02.620Z,11.73
2022-10-29T00:08:30.949Z,11.74
2022-10-29T00:11:07.217Z,11.76
2022-10-29T00:13:34.266Z,11.75
2022-10-29T00:16:04.933Z,11.71
2022-10-29T00:18:31.437Z,11.67
2022-10-29T00:21:06.263Z,11.71
2022-10-29T00:23:32.930Z,11.67
2022-10-29T00:26:00.105Z,11.60
2022-10-29T00:28:27.741Z,11.59
2022-10-29T00:30:54.702Z,11.63
2022-10-29T00:33:21.793Z,11.64
2022-10-29T00:36:03.473Z,11.69
2022-10-29T00:38:32.579Z,11.68
2022-10-29T00:40:59.361Z,11.72
2022-10-29T00:43:26.791Z,11.73
2022-10-29T00:45:57.774Z,11.71
2022-10-29T00:48:27.634Z,11.70
2022-10-29T00:50:56.281Z,11.72
2022-10-29T00:53:28.719Z,11.73
2022-10-29T00:55:55.245Z,11.75
2022-10-29T00:58:22.001Z,11.76
2022-10-29T01:00:48.518Z,11.68
2022-10-29T01:03:15.079Z,11.64
2022-10-29T01:05:42.485Z,11.63
2022-10-29T01:08:09.105Z,11.62
2022-10-29T01:11:09.969Z,11.66
2022-10-29T01:13:47.637Z,11.67
2022-10-29T01:16:39.285Z,11.70
2022-10-29T01:19:40.714Z,11.65
2022-10-29T01:22:18.164Z,11.62
2022-10-29T01:25:21.647Z,11.63
2022-10-29T01:28:17.241Z,11.57
2022-10-29T01:31:00.801Z,11.56
2022-10-29T01:33:34.661Z,11.53
2022-10-29T01:36:16.141Z,11.52
2022-10-29T01:39:03.009Z,11.53
2022-10-29T01:41:54.209Z,11.53
2022-10-29T01:44:40.235Z,11.60
2022-10-29T01:47:15.312Z,11.59
2022-10-29T01:49:44.444Z,11.60
2022-10-29T01:52:15.380Z,11.61
2022-10-29T01:54:43.354Z,11.63
2022-10-29T01:57:33.131Z,11.67
2022-10-29T02:00:09.962Z,11.68
2022-10-29T02:02:48.374Z,11.69
2022-10-29T02:05:30.301Z,11.69
2022-10-29T02:08:23.576Z,11.69
2022-10-29T02:10:59.229Z,11.63
2022-10-29T02:13:31.866Z,11.63
2022-10-29T02:16:00.401Z,11.61
2022-10-29T02:18:27.051Z,11.63
2022-10-29T02:20:53.622Z,11.64
2022-10-29T02:23:20.154Z,11.67
2022-10-29T02:25:46.666Z,11.64
2022-10-29T02:28:13.349Z,11.61
2022-10-29T02:30:39.964Z,11.59
2022-10-29T02:33:06.451Z,11.54
2022-10-29T02:35:32.976Z,11.50
2022-10-29T02:37:59.526Z,11.51
2022-10-29T02:40:26.083Z,11.51
2022-10-29T02:42:52.753Z,11.46
2022-10-29T02:45:19.385Z,11.49
2022-10-29T02:47:45.944Z,11.50
2022-10-29T02:50:12.480Z,11.51
2022-10-29T02:52:40.034Z,11.50
2022-10-29T02:55:06.794Z,11.53
2022-10-29T02:57:33.283Z,11.57
2022-10-29T02:59:59.752Z,11.57
2022-10-29T03:02:29.187Z,11.60
2022-10-29T03:04:55.812Z,11.61
2022-10-29T03:07:22.300Z,11.62
2022-10-29T03:09:48.764Z,11.57
2022-10-29T03:12:15.254Z,11.55
2022-10-29T03:14:41.737Z,11.57
2022-10-29T03:17:08.422Z,11.56
2022-10-29T03:19:34.893Z,11.54
2022-10-29T03:22:01.404Z,11.56
2022-10-29T03:24:27.875Z,11.53
2022-10-29T03:26:54.456Z,11.54
2022-10-29T03:29:20.962Z,11.51
2022-10-29T03:31:47.537Z,11.49
2022-10-29T03:34:14.053Z,11.49
2022-10-29T03:36:40.523Z,11.51
2022-10-29T03:39:07.043Z,11.50
2022-10-29T03:41:33.520Z,11.50
2022-10-29T03:44:00.016Z,11.48
2022-10-29T03:46:26.612Z,11.48
2022-10-29T03:48:53.092Z,11.46
2022-10-29T03:51:19.582Z,11.45
2022-10-29T03:53:46.173Z,11.50
2022-10-29T03:56:12.665Z,11.44
2022-10-29T03:58:39.193Z,11.43
2022-10-29T04:01:08.195Z,11.39
2022-10-29T04:03:36.269Z,11.35
2022-10-29T04:06:10.360Z,11.30
2022-10-29T04:08:37.580Z,11.27
2022-10-29T04:11:04.538Z,11.28
2022-10-29T04:13:31.072Z,11.29
2022-10-29T04:15:57.620Z,11.33
2022-10-29T04:18:24.760Z,11.32
2022-10-29T04:29:11.253Z,11.33
2022-10-29T04:31:38.135Z,11.32
2022-10-29T04:34:05.024Z,11.34
2022-10-29T04:36:31.565Z,11.31
2022-10-29T04:38:58.063Z,11.33
2022-10-29T04:41:24.627Z,11.29
2022-10-29T04:43:51.137Z,11.31
2022-10-29T04:46:17.624Z,11.25
2022-10-29T04:48:44.190Z,11.19
2022-10-29T04:51:21.549Z,11.24
2022-10-29T04:53:48.303Z,11.29
2022-10-29T04:56:14.840Z,11.30
2022-10-29T04:58:41.393Z,11.27
2022-10-29T05:01:07.939Z,11.24
2022-10-29T05:03:34.956Z,11.25
2022-10-29T05:06:05.691Z,11.24
2022-10-29T05:08:32.662Z,11.22
2022-10-29T05:11:04.973Z,11.20
2022-10-29T05:13:32.413Z,11.15
2022-10-29T05:15:58.984Z,11.17
2022-10-29T05:18:25.762Z,11.14
2022-10-29T05:20:56.061Z,11.11
2022-10-29T05:23:22.593Z,11.12
2022-10-29T05:25:51.248Z,11.14
2022-10-29T05:28:22.253Z,11.12
2022-10-29T05:30:50.423Z,11.09
2022-10-29T05:33:24.721Z,11.05
2022-10-29T05:35:51.658Z,11.05
2022-10-29T05:38:18.251Z,11.10
2022-10-29T05:40:45.457Z,11.09
2022-10-29T05:43:16.399Z,11.05
2022-10-29T05:45:43.524Z,11.08
2022-10-29T05:50:38.881Z,10.95
2022-10-29T05:53:07.266Z,10.98
2022-10-29T05:55:37.280Z,10.97
2022-10-29T05:58:06.444Z,10.98
2022-10-29T06:00:35.580Z,10.95
2022-10-29T06:03:02.337Z,10.93
2022-10-29T06:05:29.243Z,10.95
2022-10-29T06:07:57.553Z,10.92
2022-10-29T06:10:25.354Z,10.88
2022-10-29T06:12:51.938Z,10.93
2022-10-29T06:15:18.743Z,10.93
2022-10-29T06:17:46.212Z,10.94
2022-10-29T06:20:14.336Z,10.94
2022-10-29T06:22:41.559Z,10.85
2022-10-29T06:25:09.996Z,10.73
2022-10-29T06:27:37.349Z,10.71
2022-10-29T06:30:05.037Z,10.70
2022-10-29T06:32:32.821Z,10.79
2022-10-29T06:34:59.316Z,10.78
2022-10-29T06:37:25.814Z,10.71
2022-10-29T06:39:52.313Z,10.71
2022-10-29T06:42:18.801Z,10.69
2022-10-29T06:44:45.316Z,10.70
2022-10-29T06:47:11.784Z,10.74
2022-10-29T06:49:38.318Z,10.68
2022-10-29T06:52:05.133Z,10.70
2022-10-29T06:54:31.633Z,10.69
2022-10-29T06:56:58.122Z,10.73
2022-10-29T06:59:24.624Z,10.76
2022-10-29T07:01:51.220Z,10.81
2022-10-29T07:04:18.542Z,10.80
2022-10-29T07:06:45.218Z,10.78
2022-10-29T07:09:11.749Z,10.78
2022-10-29T07:11:38.401Z,10.76
2022-10-29T07:14:06.024Z,10.77
2022-10-29T07:16:32.705Z,10.77
2022-10-29T07:18:59.472Z,10.75
2022-10-29T07:21:25.948Z,10.77
2022-10-29T07:23:52.479Z,10.79
2022-10-29T07:26:19.583Z,10.79
2022-10-29T07:28:46.184Z,10.81
2022-10-29T07:31:12.669Z,10.79
2022-10-29T07:33:39.174Z,10.84
2022-10-29T07:36:06.152Z,10.81
2022-10-29T07:38:32.639Z,10.80
2022-10-29T07:40:59.647Z,10.84
2022-10-29T07:43:26.149Z,10.87
2022-10-29T07:45:52.720Z,10.95
2022-10-29T07:48:20.430Z,11.04
2022-10-29T07:50:48.113Z,11.00
2022-10-29T07:53:14.677Z,11.02
2022-10-29T07:55:41.482Z,11.00
2022-10-29T07:58:11.417Z,11.01
2022-10-29T08:00:40.435Z,11.04
2022-10-29T08:03:07.508Z,11.00
2022-10-29T08:05:34.339Z,11.03
2022-10-29T08:08:01.060Z,11.07
2022-10-29T08:10:29.625Z,11.03
2022-10-29T08:13:00.989Z,11.05
2022-10-29T08:15:30.548Z,11.07
2022-10-29T08:17:57.331Z,11.06
2022-10-29T08:20:26.296Z,11.04
2022-10-29T08:22:52.796Z,11.05
2022-10-29T08:25:19.843Z,11.05
2022-10-29T08:27:46.408Z,11.06
2022-10-29T08:30:14.597Z,11.07
2022-10-29T08:32:47.116Z,11.12
2022-10-29T08:35:14.635Z,11.13
2022-10-29T08:37:45.268Z,11.13
2022-10-29T08:40:31.815Z,11.09
2022-10-29T08:43:19.424Z,11.09
2022-10-29T08:45:48.708Z,11.10
2022-10-29T08:48:33.567Z,11.13
2022-10-29T08:51:15.218Z,11.19
2022-10-29T08:53:58.662Z,11.21
2022-10-29T08:56:38.262Z,11.23
2022-10-29T08:59:10.783Z,11.23
2022-10-29T09:01:38.068Z,11.28
2022-10-29T09:04:18.043Z,11.19
2022-10-29T09:07:03.225Z,11.16
2022-10-29T09:09:38.412Z,11.18
2022-10-29T09:12:04.845Z,11.20
2022-10-29T09:14:31.313Z,11.17
2022-10-29T09:17:03.177Z,11.23
2022-10-29T09:19:32.354Z,11.23
2022-10-29T09:22:21.805Z,11.18
2022-10-29T09:24:54.240Z,11.13
2022-10-29T09:27:26.581Z,11.21
2022-10-29T09:30:14.186Z,11.33
2022-10-29T09:32:56.401Z,11.40
2022-10-29T09:35:38.572Z,11.41
2022-10-29T09:38:19.019Z,11.36
2022-10-29T09:40:46.309Z,11.40
2022-10-29T09:43:21.768Z,11.45
2022-10-29T09:45:53.840Z,11.47
2022-10-29T09:48:36.580Z,11.53
2022-10-29T09:51:23.067Z,11.61
2022-10-29T09:53:51.257Z,11.52
2022-10-29T09:56:18.085Z,11.52
2022-10-29T09:58:49.558Z,11.54
2022-10-29T10:01:16.550Z,11.57
2022-10-29T10:03:47.299Z,11.59
2022-10-29T10:06:16.200Z,11.67
2022-10-29T10:09:04.585Z,11.59
2022-10-29T10:11:38.678Z,11.61
2022-10-29T10:14:17.960Z,11.61
2022-10-29T10:16:44.781Z,11.62
2022-10-29T10:19:26.910Z,11.60
2022-10-29T10:21:59.685Z,11.52
2022-10-29T10:24:37.406Z,11.54
2022-10-29T10:27:19.209Z,11.51
2022-10-29T10:30:04.516Z,11.48
2022-10-29T10:32:31.784Z,11.45
2022-10-29T10:34:58.288Z,11.44
2022-10-29T10:37:24.819Z,11.46
2022-10-29T10:40:00.302Z,11.49
2022-10-29T10:42:30.901Z,11.54
2022-10-29T10:45:03.570Z,11.55
2022-10-29T10:47:35.512Z,11.50
2022-10-29T10:50:18.915Z,11.47
2022-10-29T10:52:45.965Z,11.43
2022-10-29T10:55:50.624Z,11.50
2022-10-29T10:58:26.683Z,11.57
2022-10-29T11:01:18.994Z,11.57
2022-10-29T11:03:48.750Z,11.61
2022-10-29T11:06:16.997Z,11.61
2022-10-29T11:08:51.597Z,11.72
2022-10-29T11:11:22.200Z,11.68
2022-10-29T11:13:50.605Z,11.63
2022-10-29T11:16:41.216Z,11.70
2022-10-29T11:19:28.519Z,11.75
2022-10-29T11:22:37.263Z,11.81
2022-10-29T11:25:16.086Z,11.84
2022-10-29T11:27:53.632Z,11.88
2022-10-29T11:30:20.922Z,11.92
2022-10-29T11:33:10.147Z,11.96
2022-10-29T11:35:55.003Z,11.90
2022-10-29T11:38:45.937Z,11.87
2022-10-29T11:41:38.193Z,11.83
2022-10-29T11:44:12.079Z,11.79
2022-10-29T11:46:49.319Z,11.89
2022-10-29T11:49:55.774Z,11.92
2022-10-29T11:52:33.258Z,11.86
2022-10-29T11:55:17.503Z,11.88
2022-10-29T11:57:59.122Z,11.89
2022-10-29T12:00:32.322Z,11.81
2022-10-29T12:03:18.468Z,11.87
2022-10-29T12:05:58.491Z,11.96
2022-10-29T12:08:48.316Z,11.96
2022-10-29T12:11:21.308Z,12.00
2022-10-29T12:13:50.391Z,12.01
2022-10-29T12:16:28.802Z,12.05
2022-10-29T12:19:18.282Z,12.01
2022-10-29T12:21:56.012Z,12.05
2022-10-29T12:24:46.594Z,12.07
2022-10-29T12:27:27.822Z,12.16
2022-10-29T12:30:05.550Z,12.14
2022-10-29T12:33:00.947Z,12.14
2022-10-29T12:35:55.509Z,12.21
2022-10-29T12:38:42.152Z,12.18
2022-10-29T12:41:21.929Z,12.13
2022-10-29T12:43:50.784Z,12.14
2022-10-29T12:46:43.470Z,12.08
2022-10-29T12:49:36.324Z,12.10
2022-10-29T12:52:10.165Z,12.08
2022-10-29T12:54:49.629Z,12.06
2022-10-29T12:57:16.062Z,12.11
2022-10-29T12:59:43.920Z,12.10
2022-10-29T13:02:30.369Z,12.10
2022-10-29T13:05:05.900Z,12.10
2022-10-29T13:07:33.957Z,12.02
2022-10-29T13:10:22.319Z,12.06
2022-10-29T13:13:13.702Z,12.03
2022-10-29T13:15:43.961Z,12.01
2022-10-29T13:18:31.682Z,12.00
2022-10-29T13:20:59.196Z,12.02
2022-10-29T13:23:27.494Z,12.03
2022-10-29T13:25:55.592Z,12.01
2022-10-29T13:28:22.030Z,12.03
2022-10-29T13:30:50.436Z,12.04
2022-10-29T13:33:26.134Z,12.02
2022-10-29T13:35:56.532Z,12.00
2022-10-29T13:38:51.912Z,12.02
2022-10-29T13:41:43.440Z,12.00
2022-10-29T13:44:11.912Z,12.03
2022-10-29T13:46:52.912Z,12.09
2022-10-29T13:49:24.623Z,12.13
2022-10-29T13:51:54.097Z,12.09
2022-10-29T13:54:30.427Z,12.07
2022-10-29T13:57:28.941Z,12.01
2022-10-29T14:00:15.726Z,12.04
2022-10-29T14:02:42.271Z,12.03
2022-10-29T14:05:14.685Z,12.01
2022-10-29T14:08:03.149Z,11.97
2022-10-29T14:10:34.740Z,11.95
2022-10-29T14:13:23.525Z,11.95
2022-10-29T14:16:06.310Z,12.02
2022-10-29T14:18:43.760Z,12.04
2022-10-29T14:21:21.617Z,12.05
2022-10-29T14:24:09.747Z,12.01
2022-10-29T14:26:39.418Z,12.01
2022-10-29T14:29:22.284Z,11.96
2022-10-29T14:32:07.797Z,11.87
2022-10-29T14:34:34.419Z,11.87
2022-10-29T14:37:14.831Z,11.83
2022-10-29T14:39:57.857Z,11.82
2022-10-29T14:42:41.046Z,11.85
2022-10-29T14:45:17.771Z,11.82
2022-10-29T14:47:50.234Z,11.81
2022-10-29T14:50:22.611Z,11.80
2022-10-29T14:52:55.863Z,11.78
2022-10-29T14:55:30.635Z,11.79
2022-10-29T14:58:05.396Z,11.82
2022-10-29T15:00:37.029Z,11.85
2022-10-29T15:03:06.153Z,11.87
2022-10-29T15:05:36.159Z,11.85
2022-10-29T15:08:08.771Z,11.81
2022-10-29T15:10:50.139Z,11.76
2022-10-29T15:13:36.837Z,11.75
2022-10-29T15:16:09.948Z,11.74
2022-10-29T15:18:38.140Z,11.77
2022-10-29T15:21:05.772Z,11.76
2022-10-29T15:23:35.480Z,11.74
2022-10-29T15:26:08.118Z,11.75
2022-10-29T15:28:40.095Z,11.77
2022-10-29T15:31:07.714Z,11.80
2022-10-29T15:33:36.021Z,11.78
2022-10-29T15:36:04.600Z,11.75
2022-10-29T15:38:31.151Z,11.76
2022-10-29T15:41:18.954Z,11.75
2022-10-29T15:43:57.434Z,11.78
2022-10-29T15:46:35.351Z,11.77
2022-10-29T15:49:01.831Z,11.79
2022-10-29T15:51:30.389Z,11.79
2022-10-29T15:53:58.965Z,11.79
2022-10-29T15:56:25.868Z,11.80
2022-10-29T15:58:53.384Z,11.83
2022-10-29T16:01:19.927Z,11.80
2022-10-29T16:03:46.609Z,11.77
2022-10-29T16:06:15.712Z,11.81
2022-10-29T16:08:48.197Z,11.87
2022-10-29T16:11:22.849Z,11.89
2022-10-29T16:13:54.668Z,11.90
2022-10-29T16:16:24.146Z,11.95
2022-10-29T16:18:51.469Z,11.91
2022-10-29T16:21:24.350Z,11.86
2022-10-29T16:23:51.635Z,11.86
2022-10-29T16:26:20.848Z,11.86
2022-10-29T16:28:47.733Z,11.89
2022-10-29T16:31:25.917Z,11.93
2022-10-29T16:33:55.313Z,11.96
2022-10-29T16:36:21.991Z,11.93
2022-10-29T16:38:48.560Z,11.99
2022-10-29T16:41:17.629Z,12.00
2022-10-29T16:43:44.683Z,12.03
2022-10-29T16:46:12.747Z,12.02
2022-10-29T16:48:39.937Z,12.03
2022-10-29T16:51:06.886Z,12.00
2022-10-29T16:53:33.751Z,11.99
2022-10-29T16:56:01.601Z,11.97
2022-10-29T16:58:28.319Z,11.95
2022-10-29T17:01:10.420Z,11.96
2022-10-29T17:03:39.068Z,11.99
2022-10-29T17:06:07.818Z,12.00
2022-10-29T17:08:36.126Z,12.03
2022-10-29T17:11:06.007Z,12.02
2022-10-29T17:13:34.122Z,11.99
2022-10-29T17:16:00.654Z,11.96
2022-10-29T17:18:27.138Z,11.97
2022-10-29T17:21:01.285Z,11.98
2022-10-29T17:23:29.054Z,12.01
2022-10-29T17:25:56.875Z,12.05
2022-10-29T17:28:25.117Z,12.05
2022-10-29T17:30:52.076Z,12.12
2022-10-29T17:33:19.349Z,12.15
2022-10-29T17:35:46.149Z,12.14
2022-10-29T17:38:13.090Z,12.13
2022-10-29T17:40:43.037Z,12.09
2022-10-29T17:43:09.631Z,12.09
2022-10-29T17:45:37.055Z,12.10
2022-10-29T17:48:03.753Z,12.11
2022-10-29T17:50:30.319Z,12.04
2022-10-29T17:52:57.969Z,12.02
2022-10-29T17:55:24.745Z,12.02
2022-10-29T17:57:51.278Z,12.00
2022-10-29T18:00:17.922Z,12.02
2022-10-29T18:02:44.543Z,12.03
2022-10-29T18:05:11.100Z,12.08
2022-10-29T18:07:37.619Z,12.09
2022-10-29T18:10:04.356Z,12.03
2022-10-29T18:12:30.894Z,11.96
2022-10-29T18:14:57.390Z,11.96
2022-10-29T18:17:24.032Z,11.94
2022-10-29T18:19:50.566Z,11.93
2022-10-29T18:22:17.070Z,11.92
2022-10-29T18:24:43.607Z,11.93
2022-10-29T18:27:10.103Z,11.97
2022-10-29T18:29:36.610Z,11.93
2022-10-29T18:32:03.283Z,11.95
2022-10-29T18:34:31.629Z,12.03
2022-10-29T18:36:58.228Z,12.00
2022-10-29T18:39:24.723Z,12.00
2022-10-29T18:41:51.215Z,11.98
2022-10-29T18:44:17.756Z,12.01
2022-10-29T18:46:44.313Z,12.00
2022-10-29T18:49:12.992Z,11.99
2022-10-29T18:51:39.893Z,12.01
2022-10-29T18:54:06.433Z,12.04
2022-10-29T18:56:32.928Z,12.05
2022-10-29T18:59:00.399Z,12.05
2022-10-29T19:01:31.408Z,12.04
2022-10-29T19:04:04.190Z,12.08
2022-10-29T19:06:33.363Z,12.11
2022-10-29T19:09:01.600Z,12.11
2022-10-29T19:11:29.234Z,12.11
2022-10-29T19:14:06.582Z,12.03
2022-10-29T19:16:33.952Z,12.00
2022-10-29T19:21:38.761Z,11.99
2022-10-29T19:24:06.521Z,11.99
2022-10-29T19:26:35.350Z,11.94
2022-10-29T19:29:03.245Z,11.95
2022-10-29T19:31:31.554Z,11.95
2022-10-29T19:34:00.644Z,11.92
2022-10-29T19:36:28.690Z,11.95
2022-10-29T19:38:55.812Z,11.97
2022-10-29T19:41:22.463Z,12.01
2022-10-29T19:43:49.211Z,11.95
2022-10-29T19:46:17.984Z,11.92
2022-10-29T19:48:49.401Z,11.97
2022-10-29T19:51:15.916Z,12.01
2022-10-29T19:53:42.404Z,12.00
2022-10-29T19:56:11.722Z,12.00
2022-10-29T19:58:38.514Z,12.00
2022-10-29T20:01:07.159Z,12.00
2022-10-29T20:03:33.694Z,12.02
2022-10-29T20:06:00.390Z,12.03
2022-10-29T20:08:27.465Z,12.00
2022-10-29T20:10:58.553Z,11.97
2022-10-29T20:13:26.398Z,11.99
2022-10-29T20:15:53.722Z,11.99
2022-10-29T20:18:20.856Z,11.98
2022-10-29T20:20:53.442Z,12.01
2022-10-29T20:23:19.999Z,12.04
2022-10-29T20:25:46.499Z,12.05
2022-10-29T20:28:13.255Z,12.02
2022-10-29T20:30:39.767Z,11.98
2022-10-29T20:33:06.272Z,11.97
2022-10-29T20:35:32.822Z,11.99
2022-10-29T20:37:59.660Z,12.00
2022-10-29T20:40:26.331Z,12.01
2022-10-29T20:42:52.889Z,12.00
2022-10-29T20:45:19.914Z,12.05
2022-10-29T20:47:46.667Z,12.06
2022-10-29T20:50:13.225Z,12.06
2022-10-29T20:52:42.248Z,12.07
2022-10-29T20:55:12.296Z,12.05
2022-10-29T20:57:38.813Z,12.01
2022-10-29T21:00:05.965Z,12.03
2022-10-29T21:02:32.530Z,12.03
2022-10-29T21:04:59.121Z,12.01
2022-10-29T21:07:25.601Z,12.01
2022-10-29T21:09:52.159Z,12.02
2022-10-29T21:12:18.672Z,12.01
2022-10-29T21:14:45.228Z,12.01
2022-10-29T21:17:11.764Z,12.02
2022-10-29T21:19:38.321Z,12.01
2022-10-29T21:22:04.861Z,12.02
2022-10-29T21:24:31.377Z,11.99
2022-10-29T21:26:57.862Z,11.97
2022-10-29T21:29:24.405Z,11.98
2022-10-29T21:31:50.897Z,11.99
2022-10-29T21:34:17.382Z,11.95
2022-10-29T21:36:43.952Z,11.96
2022-10-29T21:39:10.465Z,11.97
2022-10-29T21:41:36.953Z,11.94
2022-10-29T21:44:03.606Z,12.02
2022-10-29T21:46:30.083Z,12.00
2022-10-29T21:48:56.736Z,12.02
2022-10-29T21:51:23.274Z,12.04
2022-10-29T21:53:49.960Z,12.02
2022-10-29T21:56:16.564Z,12.03
2022-10-29T21:58:43.765Z,12.04
2022-10-29T22:01:12.891Z,12.06
2022-10-29T22:03:41.555Z,12.10
2022-10-29T22:06:16.531Z,12.07
2022-10-29T22:08:43.634Z,12.00
2022-10-29T22:11:11.424Z,11.95
2022-10-29T22:13:38.440Z,11.92
2022-10-29T22:16:06.979Z,11.92
2022-10-29T22:18:34.554Z,11.90
2022-10-29T22:21:03.793Z,11.89
2022-10-29T22:23:30.349Z,11.89
2022-10-29T22:25:56.870Z,11.91
2022-10-29T22:28:23.375Z,11.90
2022-10-29T22:30:57.196Z,11.91
2022-10-29T22:33:23.762Z,11.88
2022-10-29T22:35:50.237Z,11.86
2022-10-29T22:38:16.732Z,11.87
2022-10-29T22:40:43.226Z,11.87
2022-10-29T22:43:09.811Z,11.85
2022-10-29T22:45:36.302Z,11.82
2022-10-29T22:48:02.948Z,11.81
2022-10-29T22:50:29.561Z,11.84
2022-10-29T22:52:56.200Z,11.80
2022-10-29T22:55:22.993Z,11.79
2022-10-29T22:57:49.461Z,11.81
2022-10-29T23:00:16.038Z,11.86
2022-10-29T23:02:42.601Z,11.89
2022-10-29T23:05:09.163Z,11.89
2022-10-29T23:07:35.653Z,11.87
2022-10-29T23:10:02.137Z,11.90
2022-10-29T23:12:28.661Z,11.86
2022-10-29T23:14:55.131Z,11.86
2022-10-29T23:17:21.620Z,11.88
2022-10-29T23:19:48.096Z,11.90
2022-10-29T23:24:46.113Z,11.84
2022-10-29T23:27:12.594Z,11.86
2022-10-29T23:29:39.092Z,11.83
2022-10-29T23:32:05.610Z,11.81
2022-10-29T23:34:32.078Z,11.76
2022-10-29T23:37:00.426Z,11.80
2022-10-29T23:39:28.687Z,11.79
2022-10-29T23:41:55.155Z,11.81
2022-10-29T23:44:21.650Z,11.85
2022-10-29T23:46:48.158Z,11.82
2022-10-29T23:49:14.924Z,11.81
2022-10-29T23:51:41.473Z,11.78
2022-10-29T23:54:07.981Z,11.78
2022-10-29T23:56:34.462Z,11.75
2022-10-29T23:59:00.940Z,11.80
